KEDC

Austin Executive Airport

Austin, Texas, USA
METAR KEDC 220355Z AUTO 17012G16KT 10SM OVC040 13/10 A2997 RMK AO2
Observed Flight Rules
Jan-22 @ 03:55 UTC (21 minutes ago) Visual Flight Rules
Wind Visibility Clouds
170° at 12 knots
 Gusting to 16 knots
10 miles
  • Overcast at 4,000' AGL
Temperatures Readings
Current 13°C / 55°F
Dewpoint 10°C / 50°F
Humidity 82%
Altimeter 29.97" Hg
Pressure 1014.92 hPa
Elevation 189
METAR KEDC 220355Z AUTO 17012G16KT 10SM OVC040 13/10 A2997 RMK AO2
Observed Flight Rules
Jan-22 @ 03:55 UTC
(21 minutes ago)
VFR
Wind Visibility
170° at 12 knots
 Gusting to 16 knots
10 miles
Clouds
  • Overcast at 4,000' AGL
Temperature Dewpoint
13°C / 55°F 10°C / 50°F
Humidity Altimeter Pressure
82% 29.97" Hg 1014.92 hPa